Allegheny County Airport
KAGC : now visible

Airfield :











YOU CAN JOIN US ON...

 
LOGIN :

Register | Disclaimer

   EN    FR    IT 

 









Legend :    VFR   Marginal VFR   IFR   Intensive IFR   Very Intensive IFR
Visi :
Ceiling :
>= 8 km
>= 3000ft
5 to 8 km
1000 to 3000 ft
1500m to 5 km
500 to 1000 ft
800 to 1500m
200 to 500 ft
< 800m
< 200 ft
Symbols :   Thunderstorms  Fog  Heavy snow  Heavy precipitations  Wind > 20 kt







- Airport Elevation : 1252 ft
- IATA code : AGC


KAGC - Allegheny County

CURRENT METAR :
  • 211624Z 28005KT 10SM BKN015 OVC020 09/06 A3005 RMK AO2 T00890056

EXPIRED METARs :
  • 211604Z VRB04KT 10SM OVC011 09/06 A3006 RMK AO2 T00890061
  • 211553Z VRB04KT 10SM OVC009 09/07 A3006 RMK AO2 SLP185 T00890067
  • 211543Z VRB06KT 10SM OVC010 08/06 A3005 RMK AO2 T00830061
  • 211453Z VRB03KT 10SM OVC008 08/06 A3004 RMK AO2 SLP181 T00780061 52026
  • 211353Z 32007KT 10SM OVC009 07/06 A3001 RMK AO2 SLP172 T00720056

TAF KAGC
Valid from the 21 at 15:00 until the 22 at 12:00 UTC


211448Z 2115/2212 32007KT P6SM OVC009
FM211600 29007KT P6SM BKN015
FM212300 27007KT P6SM BKN025
KZOB FIR / North America



MET'MAP, your aeronautical weather chart ! - Copyright ORBIFLY December 2007 - Disclaimer

ORBIFLY MET'MAP TEAM :

Programming & Development : Alexandra Zaïnal
Concept & Development : Baudouin d'Aumeries
Co-Development & Prog : Marc-Olivier Méhu
Technical & hardware support : Manuel Goepfert

Contact : metmap@orbifly.com




SOURCES & CREDITS :

   NOAA       Earth
Advisory